Airfield :
LOGIN :

Register | Disclaimer

   EN    FR    IT 

 










Legend :    VFR   Marginal VFR   IFR   Intensive IFR   Very Intensive IFR
Visi :
Ceiling :
>= 8 km
>= 3000ft
5 to 8 km
1000 to 3000 ft
1500m to 5 km
500 to 1000 ft
800 to 1500m
200 to 500 ft
< 800m
< 200 ft
Symbols :   Thunderstorms  Fog  Heavy snow  Heavy precipitations  Wind > 20 kt
SIGMETs :     Misc.  Thunderstorms  Icing  Turbulence  Mountain Waves  Volcanic Ashes






- Airport Elevation : 466 ft


LHPA - Pápa

CURRENT METAR :
  • 191145Z 35004KT 4000 -RA BR BKN007 OVC027 09/08 Q1015 NOSIG RMK YLO

EXPIRED METARs :
  • 191115Z 35004KT 4000 -RA BR BKN007 OVC027 09/08 Q1015 NOSIG RMK YLO
  • 191045Z 34006KT 4000 -RA BR BKN005 OVC020 09/08 Q1015 NOSIG RMK YLO
  • 191015Z 33008KT 4000 -RA BR BKN005 OVC020 08/08 Q1015 NOSIG RMK YLO
  • 190945Z 34008KT 4000 -RA BR BKN005 OVC020 08/08 Q1015 NOSIG RMK YLO
  • 190915Z 34006KT 4000 -RA BR BKN005 OVC020 08/08 Q1015 NOSIG RMK YLO

TAF TAF LHPA
Valid from the 19 at 12:00 until the 20 at 12:00 UTC


191115Z 1912/2012 34009KT 8000 SCT015 BKN030 BKN083
TEMPO 1912/1919 5000 RA BR BKN010 OVC030
PROB40
TEMPO 1912/1919 3000 SHRA BKN005 BKN025TCU
PROB30
TEMPO 1912/1917 VRB14G25KT 1500 -TSRA BKN003 BKN020CB
BECMG 1918/1920 VRB03KT
TEMPO 1919/2006 3000 BR BKN005
PROB30
TEMPO 1920/2006 1500 BR BKN003
BECMG 2005/2008 35009KT
TEMPO 2006/2012 5000 RA BR BKN010 OVC030
PROB40
TEMPO 2006/2012 3000 SHRA BKN005 BKN025TCU



MET'MAP, your aeronautical weather chart ! - Copyright ORBIFLY December 2007 - Disclaimer

ORBIFLY MET'MAP TEAM :

Programming & Development : Alexandra Zaïnal
Concept & original design : Baudouin d'Aumeries
Assistance for programming : Marc-Olivier Méhu
Technical & hardware support : Manuel Goepfert

Contact : metmap@orbifly.com




SOURCES & CREDITS :

   NOAA